sensor_id;sensor_type;location;lat;lon;timestamp;P1;durP1;ratioP1;P2;durP2;ratioP2
38427;SDS011;24211;49.980;19.776;2023-04-15T00:01:25;4.28;;;1.90;;
38427;SDS011;24211;49.980;19.776;2023-04-15T00:03:53;6.40;;;3.28;;
38427;SDS011;24211;49.980;19.776;2023-04-15T00:06:21;6.10;;;2.65;;
38427;SDS011;24211;49.980;19.776;2023-04-15T00:08:49;5.82;;;2.70;;
38427;SDS011;24211;49.980;19.776;2023-04-15T00:11:16;6.35;;;2.80;;
38427;SDS011;24211;49.980;19.776;2023-04-15T00:13:43;4.75;;;2.35;;
38427;SDS011;24211;49.980;19.776;2023-04-15T00:16:11;4.15;;;2.15;;
38427;SDS011;24211;49.980;19.776;2023-04-15T00:18:38;4.13;;;2.03;;
38427;SDS011;24211;49.980;19.776;2023-04-15T00:21:06;5.93;;;1.90;;
38427;SDS011;24211;49.980;19.776;2023-04-15T00:23:34;4.95;;;1.77;;
38427;SDS011;24211;49.980;19.776;2023-04-15T00:26:02;4.03;;;1.92;;
38427;SDS011;24211;49.980;19.776;2023-04-15T00:28:29;3.40;;;1.52;;
38427;SDS011;24211;49.980;19.776;2023-04-15T00:30:57;5.32;;;1.75;;
38427;SDS011;24211;49.980;19.776;2023-04-15T00:33:25;6.05;;;1.95;;
38427;SDS011;24211;49.980;19.776;2023-04-15T00:35:53;3.83;;;1.70;;
38427;SDS011;24211;49.980;19.776;2023-04-15T00:38:20;4.55;;;1.80;;
38427;SDS011;24211;49.980;19.776;2023-04-15T00:40:47;3.35;;;1.50;;
38427;SDS011;24211;49.980;19.776;2023-04-15T00:43:15;3.42;;;1.50;;
38427;SDS011;24211;49.980;19.776;2023-04-15T00:45:43;2.97;;;1.40;;
38427;SDS011;24211;49.980;19.776;2023-04-15T00:48:10;3.10;;;1.30;;
38427;SDS011;24211;49.980;19.776;2023-04-15T00:50:40;3.88;;;1.40;;
38427;SDS011;24211;49.980;19.776;2023-04-15T00:53:07;2.53;;;1.13;;
38427;SDS011;24211;49.980;19.776;2023-04-15T00:55:34;3.28;;;1.30;;
38427;SDS011;24211;49.980;19.776;2023-04-15T00:58:02;3.00;;;1.17;;
38427;SDS011;24211;49.980;19.776;2023-04-15T01:00:30;3.50;;;1.30;;
38427;SDS011;24211;49.980;19.776;2023-04-15T01:02:58;3.13;;;1.30;;
38427;SDS011;24211;49.980;19.776;2023-04-15T01:05:26;2.75;;;1.20;;
38427;SDS011;24211;49.980;19.776;2023-04-15T01:07:55;3.90;;;1.40;;
38427;SDS011;24211;49.980;19.776;2023-04-15T01:10:23;3.22;;;1.30;;
38427;SDS011;24211;49.980;19.776;2023-04-15T01:12:50;3.33;;;1.23;;
38427;SDS011;24211;49.980;19.776;2023-04-15T01:15:18;2.92;;;1.20;;
38427;SDS011;24211;49.980;19.776;2023-04-15T01:17:46;3.35;;;1.40;;
38427;SDS011;24211;49.980;19.776;2023-04-15T01:20:14;3.30;;;1.40;;
38427;SDS011;24211;49.980;19.776;2023-04-15T01:22:42;5.68;;;2.45;;
38427;SDS011;24211;49.980;19.776;2023-04-15T01:25:11;6.22;;;2.30;;
38427;SDS011;24211;49.980;19.776;2023-04-15T01:27:45;3.42;;;1.45;;
38427;SDS011;24211;49.980;19.776;2023-04-15T01:30:13;2.78;;;1.20;;
38427;SDS011;24211;49.980;19.776;2023-04-15T01:32:41;3.20;;;1.25;;
38427;SDS011;24211;49.980;19.776;2023-04-15T01:35:08;3.97;;;1.60;;
38427;SDS011;24211;49.980;19.776;2023-04-15T01:37:35;3.95;;;1.38;;
38427;SDS011;24211;49.980;19.776;2023-04-15T01:40:03;3.85;;;1.20;;
38427;SDS011;24211;49.980;19.776;2023-04-15T01:42:32;2.85;;;1.10;;
38427;SDS011;24211;49.980;19.776;2023-04-15T01:45:02;4.55;;;1.33;;
38427;SDS011;24211;49.980;19.776;2023-04-15T01:47:30;3.70;;;1.20;;
38427;SDS011;24211;49.980;19.776;2023-04-15T01:49:58;4.40;;;1.20;;
38427;SDS011;24211;49.980;19.776;2023-04-15T01:52:27;2.22;;;1.02;;
38427;SDS011;24211;49.980;19.776;2023-04-15T01:54:55;2.72;;;1.10;;
38427;SDS011;24211;49.980;19.776;2023-04-15T01:57:23;3.00;;;1.15;;
38427;SDS011;24211;49.980;19.776;2023-04-15T01:59:50;2.10;;;0.98;;
38427;SDS011;24211;49.980;19.776;2023-04-15T02:02:17;3.38;;;1.00;;
38427;SDS011;24211;49.980;19.776;2023-04-15T02:04:45;3.45;;;1.10;;
38427;SDS011;24211;49.980;19.776;2023-04-15T02:07:12;2.22;;;0.93;;
38427;SDS011;24211;49.980;19.776;2023-04-15T02:09:40;3.03;;;1.17;;
38427;SDS011;24211;49.980;19.776;2023-04-15T02:12:07;2.53;;;1.02;;
38427;SDS011;24211;49.980;19.776;2023-04-15T02:14:35;3.05;;;1.05;;
38427;SDS011;24211;49.980;19.776;2023-04-15T02:17:02;2.67;;;0.95;;
38427;SDS011;24211;49.980;19.776;2023-04-15T02:19:34;2.28;;;0.90;;
38427;SDS011;24211;49.980;19.776;2023-04-15T02:22:02;2.95;;;1.13;;
38427;SDS011;24211;49.980;19.776;2023-04-15T02:24:29;2.33;;;0.93;;
38427;SDS011;24211;49.980;19.776;2023-04-15T02:26:57;1.92;;;0.90;;
38427;SDS011;24211;49.980;19.776;2023-04-15T02:29:24;2.22;;;0.98;;
38427;SDS011;24211;49.980;19.776;2023-04-15T02:31:51;2.20;;;0.90;;
38427;SDS011;24211;49.980;19.776;2023-04-15T02:34:19;2.05;;;1.00;;
38427;SDS011;24211;49.980;19.776;2023-04-15T02:36:46;4.72;;;1.10;;
38427;SDS011;24211;49.980;19.776;2023-04-15T02:39:15;2.95;;;1.17;;
38427;SDS011;24211;49.980;19.776;2023-04-15T02:41:44;2.83;;;1.10;;
38427;SDS011;24211;49.980;19.776;2023-04-15T02:44:17;4.43;;;1.25;;
38427;SDS011;24211;49.980;19.776;2023-04-15T02:46:51;3.33;;;1.40;;
38427;SDS011;24211;49.980;19.776;2023-04-15T02:49:20;4.28;;;1.50;;
38427;SDS011;24211;49.980;19.776;2023-04-15T02:51:48;3.95;;;1.30;;
38427;SDS011;24211;49.980;19.776;2023-04-15T02:54:18;2.83;;;1.25;;
38427;SDS011;24211;49.980;19.776;2023-04-15T02:56:48;3.88;;;1.45;;
38427;SDS011;24211;49.980;19.776;2023-04-15T02:59:16;3.53;;;1.20;;
38427;SDS011;24211;49.980;19.776;2023-04-15T03:01:43;3.08;;;1.10;;
38427;SDS011;24211;49.980;19.776;2023-04-15T03:04:11;5.03;;;1.70;;
38427;SDS011;24211;49.980;19.776;2023-04-15T03:06:39;5.18;;;1.63;;
38427;SDS011;24211;49.980;19.776;2023-04-15T03:09:08;4.43;;;1.67;;
38427;SDS011;24211;49.980;19.776;2023-04-15T03:11:37;3.90;;;1.70;;
38427;SDS011;24211;49.980;19.776;2023-04-15T03:14:08;3.03;;;1.50;;
38427;SDS011;24211;49.980;19.776;2023-04-15T03:16:39;3.67;;;1.50;;
38427;SDS011;24211;49.980;19.776;2023-04-15T03:19:06;3.67;;;1.40;;
38427;SDS011;24211;49.980;19.776;2023-04-15T03:21:33;3.90;;;1.50;;
38427;SDS011;24211;49.980;19.776;2023-04-15T03:24:01;3.10;;;1.60;;
38427;SDS011;24211;49.980;19.776;2023-04-15T03:26:29;3.28;;;1.60;;
38427;SDS011;24211;49.980;19.776;2023-04-15T03:29:04;3.72;;;1.70;;
38427;SDS011;24211;49.980;19.776;2023-04-15T03:31:32;4.35;;;1.85;;
38427;SDS011;24211;49.980;19.776;2023-04-15T03:34:00;4.47;;;2.10;;
38427;SDS011;24211;49.980;19.776;2023-04-15T03:36:28;4.22;;;1.67;;
38427;SDS011;24211;49.980;19.776;2023-04-15T03:38:58;4.20;;;1.80;;
38427;SDS011;24211;49.980;19.776;2023-04-15T03:41:28;3.72;;;1.60;;
38427;SDS011;24211;49.980;19.776;2023-04-15T03:43:56;3.88;;;1.80;;
38427;SDS011;24211;49.980;19.776;2023-04-15T03:46:23;3.88;;;1.73;;
38427;SDS011;24211;49.980;19.776;2023-04-15T03:48:51;4.15;;;1.58;;
38427;SDS011;24211;49.980;19.776;2023-04-15T03:51:18;4.82;;;1.58;;
38427;SDS011;24211;49.980;19.776;2023-04-15T03:53:46;4.13;;;1.70;;
38427;SDS011;24211;49.980;19.776;2023-04-15T03:56:13;3.25;;;1.35;;
38427;SDS011;24211;49.980;19.776;2023-04-15T03:58:40;3.60;;;1.60;;
38427;SDS011;24211;49.980;19.776;2023-04-15T04:01:07;2.83;;;1.45;;
38427;SDS011;24211;49.980;19.776;2023-04-15T04:03:35;3.15;;;1.65;;
38427;SDS011;24211;49.980;19.776;2023-04-15T04:06:03;4.35;;;1.60;;
38427;SDS011;24211;49.980;19.776;2023-04-15T04:08:31;4.47;;;1.58;;
38427;SDS011;24211;49.980;19.776;2023-04-15T04:10:58;3.20;;;1.65;;
38427;SDS011;24211;49.980;19.776;2023-04-15T04:13:25;3.88;;;1.52;;
38427;SDS011;24211;49.980;19.776;2023-04-15T04:15:52;3.40;;;1.63;;
38427;SDS011;24211;49.980;19.776;2023-04-15T04:18:19;3.00;;;1.38;;
38427;SDS011;24211;49.980;19.776;2023-04-15T04:20:48;3.10;;;1.27;;
38427;SDS011;24211;49.980;19.776;2023-04-15T04:23:15;3.63;;;1.35;;
38427;SDS011;24211;49.980;19.776;2023-04-15T04:25:42;2.70;;;1.30;;
38427;SDS011;24211;49.980;19.776;2023-04-15T04:28:09;2.70;;;1.35;;
38427;SDS011;24211;49.980;19.776;2023-04-15T04:30:37;2.20;;;1.17;;
38427;SDS011;24211;49.980;19.776;2023-04-15T04:33:04;2.90;;;1.20;;
38427;SDS011;24211;49.980;19.776;2023-04-15T04:35:32;2.67;;;1.30;;
38427;SDS011;24211;49.980;19.776;2023-04-15T04:38:03;2.92;;;1.25;;
38427;SDS011;24211;49.980;19.776;2023-04-15T04:40:30;2.70;;;1.30;;
38427;SDS011;24211;49.980;19.776;2023-04-15T04:42:57;3.35;;;1.33;;
38427;SDS011;24211;49.980;19.776;2023-04-15T04:45:50;3.90;;;1.80;;
38427;SDS011;24211;49.980;19.776;2023-04-15T04:48:17;4.63;;;1.90;;
38427;SDS011;24211;49.980;19.776;2023-04-15T04:50:45;4.13;;;1.80;;
38427;SDS011;24211;49.980;19.776;2023-04-15T04:53:13;4.35;;;1.80;;
38427;SDS011;24211;49.980;19.776;2023-04-15T04:55:40;4.13;;;1.80;;
38427;SDS011;24211;49.980;19.776;2023-04-15T04:58:08;4.18;;;1.80;;
38427;SDS011;24211;49.980;19.776;2023-04-15T05:00:35;3.42;;;1.60;;
38427;SDS011;24211;49.980;19.776;2023-04-15T05:03:04;3.20;;;1.48;;
38427;SDS011;24211;49.980;19.776;2023-04-15T05:05:31;4.95;;;1.58;;
38427;SDS011;24211;49.980;19.776;2023-04-15T05:07:59;4.38;;;1.60;;
38427;SDS011;24211;49.980;19.776;2023-04-15T05:10:26;3.60;;;1.70;;
38427;SDS011;24211;49.980;19.776;2023-04-15T05:12:54;3.38;;;1.58;;
38427;SDS011;24211;49.980;19.776;2023-04-15T05:15:21;3.42;;;1.60;;
38427;SDS011;24211;49.980;19.776;2023-04-15T05:17:48;5.07;;;1.85;;
38427;SDS011;24211;49.980;19.776;2023-04-15T05:20:15;4.90;;;1.63;;
38427;SDS011;24211;49.980;19.776;2023-04-15T05:22:43;3.28;;;1.60;;
38427;SDS011;24211;49.980;19.776;2023-04-15T05:25:11;4.78;;;2.00;;
38427;SDS011;24211;49.980;19.776;2023-04-15T05:27:38;4.22;;;2.13;;
38427;SDS011;24211;49.980;19.776;2023-04-15T05:30:05;3.75;;;2.15;;
38427;SDS011;24211;49.980;19.776;2023-04-15T05:32:34;3.97;;;1.90;;
38427;SDS011;24211;49.980;19.776;2023-04-15T05:35:02;5.07;;;1.92;;
38427;SDS011;24211;49.980;19.776;2023-04-15T05:37:30;4.63;;;2.00;;
38427;SDS011;24211;49.980;19.776;2023-04-15T05:39:57;4.90;;;2.30;;
38427;SDS011;24211;49.980;19.776;2023-04-15T05:42:24;5.93;;;3.10;;
38427;SDS011;24211;49.980;19.776;2023-04-15T05:44:51;6.55;;;2.45;;
38427;SDS011;24211;49.980;19.776;2023-04-15T05:47:19;7.18;;;3.60;;
38427;SDS011;24211;49.980;19.776;2023-04-15T05:49:46;6.10;;;2.83;;
38427;SDS011;24211;49.980;19.776;2023-04-15T05:52:14;6.07;;;3.22;;
38427;SDS011;24211;49.980;19.776;2023-04-15T05:54:41;7.32;;;3.88;;
38427;SDS011;24211;49.980;19.776;2023-04-15T05:57:09;7.57;;;3.78;;
38427;SDS011;24211;49.980;19.776;2023-04-15T05:59:36;9.25;;;4.43;;
38427;SDS011;24211;49.980;19.776;2023-04-15T06:02:04;9.23;;;4.35;;
38427;SDS011;24211;49.980;19.776;2023-04-15T06:04:33;9.77;;;4.90;;
38427;SDS011;24211;49.980;19.776;2023-04-15T06:07:00;8.07;;;4.45;;
38427;SDS011;24211;49.980;19.776;2023-04-15T06:09:28;7.85;;;4.22;;
38427;SDS011;24211;49.980;19.776;2023-04-15T06:11:55;7.32;;;4.00;;
38427;SDS011;24211;49.980;19.776;2023-04-15T06:14:23;7.75;;;3.65;;
38427;SDS011;24211;49.980;19.776;2023-04-15T06:16:50;7.43;;;4.05;;
38427;SDS011;24211;49.980;19.776;2023-04-15T06:19:18;7.28;;;3.75;;
38427;SDS011;24211;49.980;19.776;2023-04-15T06:21:46;7.60;;;3.80;;
38427;SDS011;24211;49.980;19.776;2023-04-15T06:24:13;13.43;;;5.90;;
38427;SDS011;24211;49.980;19.776;2023-04-15T06:26:40;10.45;;;4.22;;
38427;SDS011;24211;49.980;19.776;2023-04-15T06:29:07;7.15;;;3.70;;
38427;SDS011;24211;49.980;19.776;2023-04-15T06:31:35;8.00;;;3.67;;
38427;SDS011;24211;49.980;19.776;2023-04-15T06:34:02;8.10;;;3.67;;
38427;SDS011;24211;49.980;19.776;2023-04-15T06:36:30;8.27;;;3.05;;
38427;SDS011;24211;49.980;19.776;2023-04-15T06:38:57;5.53;;;2.92;;
38427;SDS011;24211;49.980;19.776;2023-04-15T06:41:25;5.30;;;2.70;;
38427;SDS011;24211;49.980;19.776;2023-04-15T06:43:52;6.88;;;2.80;;
38427;SDS011;24211;49.980;19.776;2023-04-15T06:46:20;4.57;;;2.47;;
38427;SDS011;24211;49.980;19.776;2023-04-15T06:48:47;5.68;;;2.42;;
38427;SDS011;24211;49.980;19.776;2023-04-15T06:51:15;6.15;;;2.35;;
38427;SDS011;24211;49.980;19.776;2023-04-15T06:53:42;6.20;;;2.60;;
38427;SDS011;24211;49.980;19.776;2023-04-15T06:56:10;4.35;;;2.40;;
38427;SDS011;24211;49.980;19.776;2023-04-15T06:58:37;5.43;;;2.50;;
38427;SDS011;24211;49.980;19.776;2023-04-15T07:01:04;4.40;;;2.10;;
38427;SDS011;24211;49.980;19.776;2023-04-15T07:03:32;5.22;;;2.15;;
38427;SDS011;24211;49.980;19.776;2023-04-15T07:05:59;4.40;;;2.10;;
38427;SDS011;24211;49.980;19.776;2023-04-15T07:08:32;4.68;;;1.90;;
38427;SDS011;24211;49.980;19.776;2023-04-15T07:10:59;3.92;;;1.83;;
38427;SDS011;24211;49.980;19.776;2023-04-15T07:13:29;3.75;;;1.80;;
38427;SDS011;24211;49.980;19.776;2023-04-15T07:15:58;5.05;;;1.90;;
38427;SDS011;24211;49.980;19.776;2023-04-15T07:18:25;4.63;;;2.03;;
38427;SDS011;24211;49.980;19.776;2023-04-15T07:20:52;2.85;;;1.50;;
38427;SDS011;24211;49.980;19.776;2023-04-15T07:23:19;4.32;;;1.80;;
38427;SDS011;24211;49.980;19.776;2023-04-15T07:25:47;3.38;;;1.40;;
38427;SDS011;24211;49.980;19.776;2023-04-15T07:28:14;4.20;;;1.83;;
38427;SDS011;24211;49.980;19.776;2023-04-15T07:30:42;2.60;;;1.33;;
38427;SDS011;24211;49.980;19.776;2023-04-15T07:33:10;4.07;;;1.63;;
38427;SDS011;24211;49.980;19.776;2023-04-15T07:35:37;3.88;;;1.63;;
38427;SDS011;24211;49.980;19.776;2023-04-15T07:38:05;5.10;;;1.88;;
38427;SDS011;24211;49.980;19.776;2023-04-15T07:40:32;4.65;;;1.90;;
38427;SDS011;24211;49.980;19.776;2023-04-15T07:43:00;4.25;;;2.00;;
38427;SDS011;24211;49.980;19.776;2023-04-15T07:45:28;5.95;;;2.45;;
38427;SDS011;24211;49.980;19.776;2023-04-15T07:47:55;5.93;;;2.65;;
38427;SDS011;24211;49.980;19.776;2023-04-15T07:50:23;6.28;;;2.42;;
38427;SDS011;24211;49.980;19.776;2023-04-15T07:52:50;5.90;;;2.13;;
38427;SDS011;24211;49.980;19.776;2023-04-15T07:55:18;4.70;;;2.35;;
38427;SDS011;24211;49.980;19.776;2023-04-15T07:57:47;6.65;;;2.40;;
38427;SDS011;24211;49.980;19.776;2023-04-15T08:00:15;5.68;;;2.28;;
38427;SDS011;24211;49.980;19.776;2023-04-15T08:02:43;5.38;;;2.33;;
38427;SDS011;24211;49.980;19.776;2023-04-15T08:05:12;4.28;;;2.08;;
38427;SDS011;24211;49.980;19.776;2023-04-15T08:07:40;4.93;;;2.20;;
38427;SDS011;24211;49.980;19.776;2023-04-15T08:10:08;4.03;;;1.90;;
38427;SDS011;24211;49.980;19.776;2023-04-15T08:12:35;5.15;;;2.10;;
38427;SDS011;24211;49.980;19.776;2023-04-15T08:15:03;4.72;;;2.10;;
38427;SDS011;24211;49.980;19.776;2023-04-15T08:17:31;3.50;;;1.60;;
38427;SDS011;24211;49.980;19.776;2023-04-15T08:19:59;3.53;;;1.80;;
38427;SDS011;24211;49.980;19.776;2023-04-15T08:22:26;5.93;;;1.77;;
38427;SDS011;24211;49.980;19.776;2023-04-15T08:24:54;4.25;;;1.98;;
38427;SDS011;24211;49.980;19.776;2023-04-15T08:27:21;5.25;;;1.55;;
38427;SDS011;24211;49.980;19.776;2023-04-15T08:29:49;3.15;;;1.50;;
38427;SDS011;24211;49.980;19.776;2023-04-15T08:32:16;3.55;;;1.60;;
38427;SDS011;24211;49.980;19.776;2023-04-15T08:34:44;4.13;;;1.80;;
38427;SDS011;24211;49.980;19.776;2023-04-15T08:37:12;3.85;;;1.67;;
38427;SDS011;24211;49.980;19.776;2023-04-15T08:39:39;3.00;;;1.45;;
38427;SDS011;24211;49.980;19.776;2023-04-15T08:42:09;2.35;;;1.17;;
38427;SDS011;24211;49.980;19.776;2023-04-15T08:44:43;2.40;;;1.20;;
38427;SDS011;24211;49.980;19.776;2023-04-15T08:47:12;3.05;;;1.40;;
38427;SDS011;24211;49.980;19.776;2023-04-15T08:49:43;3.78;;;1.40;;
38427;SDS011;24211;49.980;19.776;2023-04-15T08:52:10;3.72;;;1.20;;
38427;SDS011;24211;49.980;19.776;2023-04-15T08:54:38;3.67;;;1.40;;
38427;SDS011;24211;49.980;19.776;2023-04-15T08:57:05;2.95;;;1.38;;
38427;SDS011;24211;49.980;19.776;2023-04-15T08:59:34;4.60;;;1.40;;
38427;SDS011;24211;49.980;19.776;2023-04-15T09:02:01;2.20;;;1.20;;
38427;SDS011;24211;49.980;19.776;2023-04-15T09:04:32;2.85;;;1.20;;
38427;SDS011;24211;49.980;19.776;2023-04-15T09:06:59;2.63;;;1.10;;
38427;SDS011;24211;49.980;19.776;2023-04-15T09:09:27;1.83;;;0.82;;
38427;SDS011;24211;49.980;19.776;2023-04-15T09:11:55;2.88;;;1.10;;
38427;SDS011;24211;49.980;19.776;2023-04-15T09:14:22;2.38;;;1.10;;
38427;SDS011;24211;49.980;19.776;2023-04-15T09:16:56;2.95;;;1.10;;
38427;SDS011;24211;49.980;19.776;2023-04-15T09:19:29;1.58;;;0.88;;
38427;SDS011;24211;49.980;19.776;2023-04-15T09:21:58;2.33;;;0.90;;
38427;SDS011;24211;49.980;19.776;2023-04-15T09:24:37;1.73;;;0.80;;
38427;SDS011;24211;49.980;19.776;2023-04-15T09:27:07;2.45;;;1.10;;
38427;SDS011;24211;49.980;19.776;2023-04-15T09:29:35;3.10;;;1.15;;
38427;SDS011;24211;49.980;19.776;2023-04-15T09:32:12;1.77;;;1.05;;
38427;SDS011;24211;49.980;19.776;2023-04-15T09:34:41;3.67;;;0.90;;
38427;SDS011;24211;49.980;19.776;2023-04-15T09:37:09;3.65;;;0.90;;
38427;SDS011;24211;49.980;19.776;2023-04-15T09:39:57;2.05;;;0.80;;
38427;SDS011;24211;49.980;19.776;2023-04-15T09:42:24;2.72;;;1.15;;
38427;SDS011;24211;49.980;19.776;2023-04-15T09:44:52;1.58;;;0.82;;
38427;SDS011;24211;49.980;19.776;2023-04-15T09:47:29;1.92;;;0.90;;
38427;SDS011;24211;49.980;19.776;2023-04-15T09:49:58;3.22;;;1.10;;
38427;SDS011;24211;49.980;19.776;2023-04-15T09:52:28;1.80;;;1.00;;
38427;SDS011;24211;49.980;19.776;2023-04-15T09:54:57;3.55;;;1.23;;
38427;SDS011;24211;49.980;19.776;2023-04-15T09:57:33;1.75;;;1.00;;
38427;SDS011;24211;49.980;19.776;2023-04-15T10:00:03;3.67;;;0.93;;
38427;SDS011;24211;49.980;19.776;2023-04-15T10:02:31;2.30;;;0.90;;
38427;SDS011;24211;49.980;19.776;2023-04-15T10:05:03;2.15;;;0.90;;
38427;SDS011;24211;49.980;19.776;2023-04-15T10:07:32;2.40;;;0.90;;
38427;SDS011;24211;49.980;19.776;2023-04-15T10:10:01;1.75;;;0.80;;
38427;SDS011;24211;49.980;19.776;2023-04-15T10:12:30;2.00;;;0.95;;
38427;SDS011;24211;49.980;19.776;2023-04-15T10:15:00;1.80;;;0.70;;
38427;SDS011;24211;49.980;19.776;2023-04-15T10:17:31;2.10;;;1.08;;
38427;SDS011;24211;49.980;19.776;2023-04-15T10:20:01;2.92;;;1.00;;
38427;SDS011;24211;49.980;19.776;2023-04-15T10:22:31;4.95;;;1.35;;
38427;SDS011;24211;49.980;19.776;2023-04-15T10:25:00;4.07;;;1.73;;
38427;SDS011;24211;49.980;19.776;2023-04-15T10:27:29;3.00;;;1.42;;
38427;SDS011;24211;49.980;19.776;2023-04-15T10:29:57;4.55;;;1.48;;
38427;SDS011;24211;49.980;19.776;2023-04-15T10:32:29;2.75;;;1.20;;
38427;SDS011;24211;49.980;19.776;2023-04-15T10:34:57;3.75;;;1.50;;
38427;SDS011;24211;49.980;19.776;2023-04-15T10:37:34;3.10;;;1.40;;
38427;SDS011;24211;49.980;19.776;2023-04-15T10:40:22;3.05;;;1.20;;
38427;SDS011;24211;49.980;19.776;2023-04-15T10:42:58;4.18;;;1.60;;
38427;SDS011;24211;49.980;19.776;2023-04-15T10:45:32;3.95;;;1.50;;
38427;SDS011;24211;49.980;19.776;2023-04-15T10:48:03;3.28;;;1.20;;
38427;SDS011;24211;49.980;19.776;2023-04-15T10:50:34;4.93;;;2.03;;
38427;SDS011;24211;49.980;19.776;2023-04-15T10:53:03;3.00;;;1.25;;
38427;SDS011;24211;49.980;19.776;2023-04-15T10:55:33;2.83;;;1.33;;
38427;SDS011;24211;49.980;19.776;2023-04-15T10:58:01;3.40;;;1.40;;
38427;SDS011;24211;49.980;19.776;2023-04-15T11:00:29;2.88;;;1.40;;
38427;SDS011;24211;49.980;19.776;2023-04-15T11:08:07;4.18;;;1.48;;
38427;SDS011;24211;49.980;19.776;2023-04-15T11:15:43;3.33;;;1.30;;
38427;SDS011;24211;49.980;19.776;2023-04-15T11:18:19;2.45;;;1.20;;
38427;SDS011;24211;49.980;19.776;2023-04-15T11:20:57;2.67;;;1.27;;
38427;SDS011;24211;49.980;19.776;2023-04-15T11:26:06;3.60;;;1.40;;
38427;SDS011;24211;49.980;19.776;2023-04-15T11:31:14;3.47;;;1.20;;
38427;SDS011;24211;49.980;19.776;2023-04-15T11:33:46;3.13;;;1.23;;
38427;SDS011;24211;49.980;19.776;2023-04-15T11:36:28;2.28;;;1.10;;
38427;SDS011;24211;49.980;19.776;2023-04-15T11:38:57;2.25;;;1.00;;
38427;SDS011;24211;49.980;19.776;2023-04-15T11:41:26;2.38;;;0.93;;
38427;SDS011;24211;49.980;19.776;2023-04-15T11:43:53;2.55;;;1.10;;
38427;SDS011;24211;49.980;19.776;2023-04-15T11:46:27;2.20;;;1.10;;
38427;SDS011;24211;49.980;19.776;2023-04-15T11:48:57;2.65;;;1.10;;
38427;SDS011;24211;49.980;19.776;2023-04-15T11:51:25;3.75;;;1.30;;
38427;SDS011;24211;49.980;19.776;2023-04-15T11:56:25;3.45;;;1.40;;
38427;SDS011;24211;49.980;19.776;2023-04-15T11:58:54;3.60;;;1.23;;
38427;SDS011;24211;49.980;19.776;2023-04-15T12:01:32;5.05;;;1.58;;
38427;SDS011;24211;49.980;19.776;2023-04-15T12:04:13;2.70;;;1.20;;
38427;SDS011;24211;49.980;19.776;2023-04-15T12:06:50;3.08;;;1.52;;
38427;SDS011;24211;49.980;19.776;2023-04-15T12:09:18;3.42;;;1.17;;
38427;SDS011;24211;49.980;19.776;2023-04-15T12:16:52;2.72;;;1.05;;
38427;SDS011;24211;49.980;19.776;2023-04-15T12:19:29;2.60;;;1.30;;
38427;SDS011;24211;49.980;19.776;2023-04-15T12:22:09;3.33;;;1.48;;
38427;SDS011;24211;49.980;19.776;2023-04-15T12:24:37;2.90;;;1.30;;
38427;SDS011;24211;49.980;19.776;2023-04-15T12:27:06;2.63;;;1.25;;
38427;SDS011;24211;49.980;19.776;2023-04-15T12:29:37;2.75;;;1.42;;
38427;SDS011;24211;49.980;19.776;2023-04-15T12:32:07;1.95;;;1.05;;
38427;SDS011;24211;49.980;19.776;2023-04-15T12:34:36;3.67;;;1.40;;
38427;SDS011;24211;49.980;19.776;2023-04-15T12:37:05;2.88;;;1.20;;
38427;SDS011;24211;49.980;19.776;2023-04-15T12:39:36;2.42;;;1.00;;
38427;SDS011;24211;49.980;19.776;2023-04-15T12:42:06;2.70;;;1.10;;
38427;SDS011;24211;49.980;19.776;2023-04-15T12:44:35;2.75;;;1.10;;
38427;SDS011;24211;49.980;19.776;2023-04-15T12:47:04;4.60;;;1.33;;
38427;SDS011;24211;49.980;19.776;2023-04-15T12:49:33;3.30;;;1.20;;
38427;SDS011;24211;49.980;19.776;2023-04-15T12:52:01;3.78;;;1.33;;
38427;SDS011;24211;49.980;19.776;2023-04-15T12:54:29;2.17;;;1.10;;
38427;SDS011;24211;49.980;19.776;2023-04-15T12:56:58;2.38;;;1.00;;
38427;SDS011;24211;49.980;19.776;2023-04-15T12:59:26;2.05;;;1.00;;
38427;SDS011;24211;49.980;19.776;2023-04-15T13:01:54;2.92;;;1.30;;
38427;SDS011;24211;49.980;19.776;2023-04-15T13:04:22;4.18;;;1.38;;
38427;SDS011;24211;49.980;19.776;2023-04-15T13:06:50;2.70;;;1.40;;
38427;SDS011;24211;49.980;19.776;2023-04-15T13:09:17;2.45;;;0.95;;
38427;SDS011;24211;49.980;19.776;2023-04-15T13:11:44;4.40;;;1.70;;
38427;SDS011;24211;49.980;19.776;2023-04-15T13:14:11;2.97;;;1.40;;
38427;SDS011;24211;49.980;19.776;2023-04-15T13:16:39;2.67;;;1.25;;
38427;SDS011;24211;49.980;19.776;2023-04-15T13:19:07;3.30;;;1.30;;
38427;SDS011;24211;49.980;19.776;2023-04-15T13:21:34;2.22;;;1.17;;
38427;SDS011;24211;49.980;19.776;2023-04-15T13:24:02;3.90;;;1.40;;
38427;SDS011;24211;49.980;19.776;2023-04-15T13:26:31;3.47;;;1.20;;
38427;SDS011;24211;49.980;19.776;2023-04-15T13:28:58;3.63;;;1.52;;
38427;SDS011;24211;49.980;19.776;2023-04-15T13:31:26;3.05;;;1.20;;
38427;SDS011;24211;49.980;19.776;2023-04-15T13:33:55;2.60;;;1.23;;
38427;SDS011;24211;49.980;19.776;2023-04-15T13:36:23;2.72;;;1.27;;
38427;SDS011;24211;49.980;19.776;2023-04-15T13:38:50;3.05;;;1.20;;
38427;SDS011;24211;49.980;19.776;2023-04-15T13:41:17;4.03;;;1.45;;
38427;SDS011;24211;49.980;19.776;2023-04-15T13:43:46;2.40;;;1.17;;
38427;SDS011;24211;49.980;19.776;2023-04-15T13:46:13;3.20;;;1.45;;
38427;SDS011;24211;49.980;19.776;2023-04-15T13:48:40;2.53;;;1.10;;
38427;SDS011;24211;49.980;19.776;2023-04-15T13:51:08;2.22;;;1.10;;
38427;SDS011;24211;49.980;19.776;2023-04-15T13:53:35;1.80;;;0.90;;
38427;SDS011;24211;49.980;19.776;2023-04-15T13:56:05;1.98;;;1.10;;
38427;SDS011;24211;49.980;19.776;2023-04-15T13:58:33;2.58;;;1.20;;
38427;SDS011;24211;49.980;19.776;2023-04-15T14:01:02;1.92;;;1.00;;
38427;SDS011;24211;49.980;19.776;2023-04-15T14:03:32;2.65;;;1.35;;
38427;SDS011;24211;49.980;19.776;2023-04-15T14:06:02;1.92;;;0.95;;
38427;SDS011;24211;49.980;19.776;2023-04-15T14:08:29;2.80;;;1.27;;
38427;SDS011;24211;49.980;19.776;2023-04-15T14:10:57;3.80;;;1.00;;
38427;SDS011;24211;49.980;19.776;2023-04-15T14:13:24;2.65;;;1.20;;
38427;SDS011;24211;49.980;19.776;2023-04-15T14:15:51;3.15;;;1.40;;
38427;SDS011;24211;49.980;19.776;2023-04-15T14:18:18;2.90;;;1.20;;
38427;SDS011;24211;49.980;19.776;2023-04-15T14:20:46;2.63;;;1.38;;
38427;SDS011;24211;49.980;19.776;2023-04-15T14:23:13;3.22;;;1.48;;
38427;SDS011;24211;49.980;19.776;2023-04-15T14:25:40;4.05;;;1.70;;
38427;SDS011;24211;49.980;19.776;2023-04-15T14:28:08;3.72;;;2.10;;
38427;SDS011;24211;49.980;19.776;2023-04-15T14:30:35;3.30;;;1.50;;
38427;SDS011;24211;49.980;19.776;2023-04-15T14:33:03;7.25;;;2.20;;
38427;SDS011;24211;49.980;19.776;2023-04-15T14:35:30;6.68;;;3.17;;
38427;SDS011;24211;49.980;19.776;2023-04-15T14:37:58;3.63;;;1.88;;
38427;SDS011;24211;49.980;19.776;2023-04-15T14:40:25;3.83;;;1.77;;
38427;SDS011;24211;49.980;19.776;2023-04-15T14:42:52;3.55;;;1.80;;
38427;SDS011;24211;49.980;19.776;2023-04-15T14:45:20;5.45;;;1.80;;
38427;SDS011;24211;49.980;19.776;2023-04-15T14:47:47;3.63;;;1.90;;
38427;SDS011;24211;49.980;19.776;2023-04-15T14:50:16;6.35;;;1.80;;
38427;SDS011;24211;49.980;19.776;2023-04-15T14:52:43;5.50;;;1.90;;
38427;SDS011;24211;49.980;19.776;2023-04-15T14:55:11;4.95;;;1.55;;
38427;SDS011;24211;49.980;19.776;2023-04-15T14:57:39;6.35;;;2.35;;
38427;SDS011;24211;49.980;19.776;2023-04-15T15:00:08;3.50;;;1.70;;
38427;SDS011;24211;49.980;19.776;2023-04-15T15:02:41;3.55;;;1.50;;
38427;SDS011;24211;49.980;19.776;2023-04-15T15:05:09;4.07;;;1.70;;